createdAt,value
2022-11-28T00:01:59.508Z,37.96
2022-11-28T00:04:29.675Z,38.10
2022-11-28T00:07:00.272Z,38.01
2022-11-28T00:09:30.350Z,38.02
2022-11-28T00:12:00.456Z,37.86
2022-11-28T00:14:30.626Z,38.14
2022-11-28T00:17:04.538Z,37.94
2022-11-28T00:19:34.406Z,37.65
2022-11-28T00:22:04.824Z,37.54
2022-11-28T00:24:35.088Z,37.42
2022-11-28T00:27:21.413Z,37.32
2022-11-28T00:29:52.111Z,37.29
2022-11-28T00:32:42.143Z,37.29
2022-11-28T00:35:12.386Z,37.25
2022-11-28T00:37:43.460Z,37.17
2022-11-28T00:40:13.582Z,37.12
2022-11-28T00:42:43.603Z,37.09
2022-11-28T00:45:13.998Z,37.08
2022-11-28T00:47:43.978Z,37.05
2022-11-28T00:50:14.739Z,37.01
2022-11-28T00:52:44.956Z,36.95
2022-11-28T00:55:16.029Z,36.97
2022-11-28T00:57:46.032Z,36.73
2022-11-28T01:00:17.155Z,36.71
2022-11-28T01:02:47.576Z,36.80
2022-11-28T01:05:17.564Z,36.81
2022-11-28T01:38:25.342Z,36.46
2022-11-28T01:40:55.426Z,36.43
2022-11-28T01:43:28.420Z,36.38
2022-11-28T01:45:58.638Z,36.41
2022-11-28T01:48:33.884Z,36.37
2022-11-28T01:51:04.875Z,36.34
2022-11-28T01:53:36.439Z,36.37
2022-11-28T01:56:22.224Z,36.32
2022-11-28T01:58:54.130Z,36.30
2022-11-28T02:01:25.536Z,36.25
2022-11-28T02:03:55.684Z,36.24
2022-11-28T02:06:26.056Z,36.21
2022-11-28T02:08:56.359Z,36.20
2022-11-28T02:11:43.816Z,36.21
2022-11-28T02:14:19.343Z,36.24
2022-11-28T02:16:58.353Z,36.26
2022-11-28T02:19:50.452Z,36.29
2022-11-28T02:22:41.369Z,36.32
2022-11-28T02:25:28.790Z,36.38
2022-11-28T02:28:16.406Z,36.39
2022-11-28T02:30:49.290Z,36.42
2022-11-28T02:33:31.363Z,36.44
2022-11-28T02:36:21.685Z,36.46
2022-11-28T02:38:54.432Z,36.46
2022-11-28T02:41:43.323Z,36.48
2022-11-28T02:44:18.614Z,36.48
2022-11-28T02:47:00.254Z,36.48
2022-11-28T02:49:53.605Z,36.49
2022-11-28T02:52:41.645Z,36.47
2022-11-28T02:55:13.112Z,36.48
2022-11-28T02:57:51.311Z,36.47
2022-11-28T03:00:39.671Z,36.46
2022-11-28T03:03:24.926Z,36.45
2022-11-28T03:06:00.799Z,36.45
2022-11-28T03:08:42.095Z,36.45
2022-11-28T03:11:31.389Z,36.40
2022-11-28T03:14:13.346Z,36.36
2022-11-28T03:16:48.617Z,36.32
2022-11-28T03:19:36.235Z,36.29
2022-11-28T03:22:17.742Z,36.21
2022-11-28T03:24:50.846Z,36.20
2022-11-28T03:27:35.008Z,36.14
2022-11-28T03:30:17.663Z,36.12
2022-11-28T03:32:47.660Z,36.09
2022-11-28T03:35:22.789Z,36.05
2022-11-28T03:37:55.701Z,36.04
2022-11-28T03:40:27.529Z,36.00
2022-11-28T03:43:03.299Z,36.00
2022-11-28T03:45:36.343Z,35.96
2022-11-28T03:48:09.550Z,35.97
2022-11-28T03:50:46.426Z,35.97
2022-11-28T03:53:19.842Z,35.93
2022-11-28T03:55:52.634Z,35.89
2022-11-28T03:58:31.261Z,35.89
2022-11-28T04:01:06.793Z,35.85
2022-11-28T04:04:07.453Z,35.83
2022-11-28T04:06:40.746Z,35.80
2022-11-28T04:09:16.388Z,35.76
2022-11-28T04:11:49.176Z,35.76
2022-11-28T04:14:27.930Z,35.75
2022-11-28T04:17:07.390Z,35.73
2022-11-28T04:19:39.838Z,35.71
2022-11-28T04:22:25.417Z,35.67
2022-11-28T04:25:03.728Z,35.66
2022-11-28T04:27:38.970Z,35.65
2022-11-28T04:30:10.861Z,35.63
2022-11-28T04:32:42.614Z,35.62
2022-11-28T04:35:15.505Z,35.62
2022-11-28T04:37:45.983Z,35.61
2022-11-28T04:40:16.111Z,35.57
2022-11-28T04:42:52.771Z,35.57
2022-11-28T04:45:34.971Z,35.56
2022-11-28T04:48:05.043Z,35.51
2022-11-28T04:50:37.865Z,35.52
2022-11-28T04:53:11.930Z,35.51
2022-11-28T04:55:56.734Z,35.49
2022-11-28T04:58:35.660Z,35.46
2022-11-28T05:01:07.317Z,35.45
2022-11-28T05:03:42.430Z,35.44
2022-11-28T05:06:10.184Z,35.42
2022-11-28T05:08:41.235Z,35.40
2022-11-28T05:11:11.443Z,35.36
2022-11-28T05:13:41.848Z,35.38
2022-11-28T05:16:13.995Z,35.38
2022-11-28T05:18:44.061Z,35.41
2022-11-28T05:21:17.585Z,35.48
2022-11-28T05:23:47.510Z,35.53
2022-11-28T05:26:19.676Z,35.60
2022-11-28T05:28:51.039Z,35.64
2022-11-28T05:31:21.838Z,35.71
2022-11-28T05:33:51.967Z,35.74
2022-11-28T05:36:22.345Z,35.80
2022-11-28T05:38:52.573Z,35.76
2022-11-28T05:41:23.764Z,35.74
2022-11-28T05:43:53.994Z,35.73
2022-11-28T05:46:23.986Z,35.73
2022-11-28T05:48:54.042Z,35.70
2022-11-28T05:51:24.136Z,35.68
2022-11-28T05:53:55.590Z,35.65
2022-11-28T05:56:25.683Z,35.63
2022-11-28T05:58:55.811Z,35.61
2022-11-28T06:01:30.091Z,35.58
2022-11-28T06:04:01.697Z,35.57
2022-11-28T06:06:33.952Z,35.56
2022-11-28T06:09:03.768Z,35.52
2022-11-28T06:11:33.780Z,35.53
2022-11-28T06:14:04.122Z,35.52
2022-11-28T06:16:34.152Z,35.48
2022-11-28T06:19:05.106Z,35.48
2022-11-28T06:21:35.437Z,35.43
2022-11-28T06:24:05.783Z,35.45
2022-11-28T06:26:35.690Z,35.46
2022-11-28T06:29:05.885Z,35.47
2022-11-28T06:31:36.174Z,35.52
2022-11-28T06:34:07.103Z,35.54
2022-11-28T06:36:38.095Z,35.58
2022-11-28T06:39:08.221Z,35.61
2022-11-28T06:41:39.190Z,35.65
2022-11-28T06:44:10.405Z,35.56
2022-11-28T06:46:41.307Z,35.56
2022-11-28T06:49:14.733Z,35.73
2022-11-28T06:51:46.150Z,35.72
2022-11-28T06:54:17.768Z,35.70
2022-11-28T06:56:47.778Z,35.64
2022-11-28T06:59:17.872Z,35.64
2022-11-28T07:01:48.155Z,35.59
2022-11-28T07:04:18.429Z,35.58
2022-11-28T07:06:48.427Z,35.55
2022-11-28T07:09:18.544Z,35.55
2022-11-28T07:11:48.692Z,35.52
2022-11-28T07:14:18.869Z,35.54
2022-11-28T07:16:50.025Z,35.50
2022-11-28T07:19:21.603Z,35.46
2022-11-28T07:21:52.141Z,35.46
2022-11-28T07:24:22.137Z,35.44
2022-11-28T07:26:52.086Z,35.50
2022-11-28T07:29:22.608Z,35.50
2022-11-28T07:31:52.729Z,35.36
2022-11-28T07:34:22.852Z,35.36
2022-11-28T07:36:52.788Z,35.42
2022-11-28T07:39:22.898Z,35.41
2022-11-28T07:41:52.925Z,35.44
2022-11-28T07:44:23.420Z,35.45
2022-11-28T07:46:53.771Z,35.48
2022-11-28T07:49:23.972Z,35.50
2022-11-28T07:51:54.098Z,35.51
2022-11-28T07:54:24.175Z,35.54
2022-11-28T07:57:12.997Z,35.55
2022-11-28T07:59:25.698Z,35.57
2022-11-28T08:01:55.911Z,35.59
2022-11-28T08:04:27.646Z,35.61
2022-11-28T08:06:58.024Z,35.60
2022-11-28T08:09:28.214Z,35.61
2022-11-28T08:11:58.069Z,35.63
2022-11-28T08:14:28.380Z,35.59
2022-11-28T08:16:58.533Z,35.54
2022-11-28T08:19:33.732Z,35.53
2022-11-28T08:22:00.386Z,35.49
2022-11-28T08:24:30.561Z,35.47
2022-11-28T08:27:00.534Z,35.44
2022-11-28T08:29:30.652Z,35.42
2022-11-28T08:32:00.413Z,35.42
2022-11-28T08:34:30.368Z,35.41
2022-11-28T08:37:00.513Z,35.39
2022-11-28T08:39:30.638Z,35.38
2022-11-28T08:42:00.781Z,35.34
2022-11-28T08:44:31.118Z,35.29
2022-11-28T08:47:01.366Z,35.27
2022-11-28T08:49:31.316Z,35.25
2022-11-28T08:52:01.227Z,35.21
2022-11-28T08:54:31.396Z,35.20
2022-11-28T08:57:02.215Z,35.17
2022-11-28T08:59:32.243Z,35.17
2022-11-28T09:02:02.308Z,35.23
2022-11-28T09:04:32.485Z,35.27
2022-11-28T09:07:02.980Z,35.27
2022-11-28T09:09:33.125Z,35.27
2022-11-28T09:12:03.201Z,35.28
2022-11-28T09:14:33.435Z,35.31
2022-11-28T09:17:03.813Z,35.31
2022-11-28T09:19:33.993Z,35.31
2022-11-28T09:22:04.100Z,35.31
2022-11-28T09:24:34.053Z,35.32
2022-11-28T09:27:04.496Z,35.32
2022-11-28T09:29:34.609Z,35.32
2022-11-28T09:32:04.682Z,35.35
2022-11-28T09:34:34.830Z,35.31
2022-11-28T09:37:05.244Z,35.27
2022-11-28T09:39:44.388Z,35.22
2022-11-28T09:42:10.602Z,35.21
2022-11-28T09:44:49.294Z,35.19
2022-11-28T09:47:22.133Z,35.16
2022-11-28T09:50:00.455Z,35.15
2022-11-28T09:52:33.439Z,35.13
2022-11-28T09:55:22.963Z,35.14
2022-11-28T09:57:53.588Z,35.11
2022-11-28T10:00:26.173Z,35.09
2022-11-28T10:03:05.440Z,35.06
2022-11-28T10:05:46.188Z,35.03
2022-11-28T10:08:24.690Z,35.00
2022-11-28T10:11:15.187Z,34.95
2022-11-28T10:14:07.056Z,35.02
2022-11-28T10:16:48.005Z,35.07
2022-11-28T10:19:52.298Z,35.05
2022-11-28T10:21:59.014Z,35.06
2022-11-28T10:24:42.674Z,35.06
2022-11-28T10:27:13.537Z,35.07
2022-11-28T10:29:51.697Z,35.07
2022-11-28T10:32:23.172Z,35.08
2022-11-28T10:35:10.766Z,35.09
2022-11-28T10:37:41.267Z,35.08
2022-11-28T10:40:18.365Z,35.09
2022-11-28T10:42:56.904Z,35.07
2022-11-28T10:45:35.672Z,35.06
2022-11-28T10:48:40.968Z,35.02
2022-11-28T10:51:07.738Z,34.99
2022-11-28T10:53:59.591Z,34.97
2022-11-28T10:57:04.081Z,34.93
2022-11-28T10:59:39.647Z,34.91
2022-11-28T11:02:23.653Z,34.88
2022-11-28T11:04:53.798Z,34.87
2022-11-28T11:07:33.190Z,34.81
2022-11-28T11:10:04.475Z,34.82
2022-11-28T11:12:34.619Z,34.81
2022-11-28T11:15:22.465Z,34.81
2022-11-28T11:17:52.933Z,34.76
2022-11-28T11:20:36.895Z,34.82
2022-11-28T11:23:17.422Z,34.82
2022-11-28T11:25:59.148Z,34.84
2022-11-28T11:28:40.654Z,34.80
2022-11-28T11:31:26.447Z,34.80
2022-11-28T11:34:05.317Z,34.79
2022-11-28T11:36:38.658Z,34.80
2022-11-28T11:39:11.551Z,34.79
2022-11-28T11:41:47.663Z,34.79
2022-11-28T11:44:23.430Z,34.83
2022-11-28T11:46:57.346Z,34.80
2022-11-28T11:49:42.910Z,34.78
2022-11-28T11:52:25.483Z,34.73
2022-11-28T11:55:07.804Z,34.69
2022-11-28T11:57:41.843Z,34.67
2022-11-28T12:00:23.555Z,34.69
2022-11-28T12:03:07.826Z,34.67
2022-11-28T12:06:12.232Z,34.66
2022-11-28T12:08:18.137Z,34.61
2022-11-28T12:10:59.372Z,34.62
2022-11-28T12:13:29.457Z,34.58
2022-11-28T12:16:21.664Z,34.53
2022-11-28T12:19:15.218Z,34.60
2022-11-28T12:22:05.825Z,34.62
2022-11-28T12:24:58.333Z,34.59
2022-11-28T12:27:49.826Z,34.60
2022-11-28T12:30:22.949Z,34.58
2022-11-28T12:33:10.545Z,34.56
2022-11-28T12:35:45.211Z,34.58
2022-11-28T12:38:26.948Z,34.57
2022-11-28T12:41:11.551Z,34.55
2022-11-28T12:43:45.041Z,34.57
2022-11-28T12:46:38.643Z,34.58
2022-11-28T12:49:12.293Z,34.54
2022-11-28T12:51:59.778Z,34.55
2022-11-28T12:54:49.225Z,34.53
2022-11-28T12:57:22.027Z,34.49
2022-11-28T13:00:10.032Z,34.45
2022-11-28T13:03:14.843Z,34.43
2022-11-28T13:05:50.762Z,34.42
2022-11-28T13:08:47.920Z,34.41
2022-11-28T13:11:25.009Z,34.39
2022-11-28T13:14:00.525Z,34.39
2022-11-28T13:16:51.423Z,34.34
2022-11-28T13:19:30.068Z,34.33
2022-11-28T13:22:24.349Z,34.27
2022-11-28T13:25:12.358Z,34.32
2022-11-28T13:27:45.752Z,34.33
2022-11-28T13:30:21.204Z,34.30
2022-11-28T13:32:53.944Z,34.30
2022-11-28T13:35:23.924Z,34.26
2022-11-28T13:40:55.673Z,34.19
2022-11-28T13:43:28.348Z,34.18
2022-11-28T13:45:59.219Z,34.15
2022-11-28T13:51:20.904Z,34.17
2022-11-28T13:53:51.295Z,34.19
2022-11-28T13:56:28.396Z,34.16
2022-11-28T13:59:01.493Z,34.15
2022-11-28T14:01:47.422Z,34.15
2022-11-28T14:04:21.310Z,34.15
2022-11-28T14:06:58.261Z,34.13
2022-11-28T14:09:40.028Z,34.11
2022-11-28T14:12:31.860Z,34.10
2022-11-28T14:15:19.803Z,34.08
2022-11-28T14:18:18.928Z,34.08
2022-11-28T14:20:38.952Z,34.07
2022-11-28T14:23:15.180Z,34.05
2022-11-28T14:25:48.027Z,34.05
2022-11-28T14:28:21.189Z,34.04
2022-11-28T14:30:51.958Z,34.03
2022-11-28T14:33:27.395Z,33.98
2022-11-28T14:36:00.340Z,33.99
2022-11-28T14:38:36.526Z,33.82
2022-11-28T14:41:12.077Z,33.08
2022-11-28T15:15:18.480Z,33.60
2022-11-28T15:17:50.088Z,33.60
2022-11-28T15:20:38.167Z,33.61
2022-11-28T15:23:10.136Z,33.63
2022-11-28T15:25:41.789Z,33.66
2022-11-28T15:28:18.990Z,33.68
2022-11-28T15:30:51.177Z,33.71
2022-11-28T15:33:21.701Z,33.64
2022-11-28T15:36:02.491Z,33.69
2022-11-28T15:38:33.461Z,33.71
2022-11-28T15:41:03.611Z,33.69
2022-11-28T15:43:37.123Z,33.74
2022-11-28T15:46:08.840Z,33.71
2022-11-28T15:48:40.695Z,33.72
2022-11-28T15:51:10.907Z,33.70
2022-11-28T15:53:44.942Z,33.71
2022-11-28T15:56:16.248Z,33.71
2022-11-28T15:58:48.709Z,33.73
2022-11-28T16:01:21.476Z,33.61
2022-11-28T16:04:02.990Z,33.61
2022-11-28T16:06:34.387Z,33.61
2022-11-28T16:09:10.326Z,33.64
2022-11-28T16:11:41.017Z,33.71
2022-11-28T16:14:12.412Z,33.72
2022-11-28T16:16:43.558Z,33.78
2022-11-28T16:19:28.459Z,33.83
2022-11-28T16:22:01.157Z,33.87
2022-11-28T16:24:39.178Z,33.94
2022-11-28T16:27:11.529Z,33.96
2022-11-28T16:29:44.457Z,34.00
2022-11-28T16:32:39.661Z,34.04
2022-11-28T16:35:13.514Z,34.08
2022-11-28T16:37:44.503Z,34.09
2022-11-28T16:40:17.922Z,34.10
2022-11-28T16:42:56.286Z,34.14
2022-11-28T16:45:30.742Z,34.17
2022-11-28T16:48:13.436Z,34.17
2022-11-28T16:50:45.329Z,34.19
2022-11-28T16:53:18.222Z,34.24
2022-11-28T16:55:48.479Z,34.24
2022-11-28T16:58:23.226Z,34.27
2022-11-28T17:01:02.112Z,34.27
2022-11-28T17:03:51.812Z,34.25
2022-11-28T17:06:26.738Z,34.22
2022-11-28T17:08:57.778Z,34.19
2022-11-28T17:11:31.858Z,34.19
2022-11-28T17:14:02.843Z,34.17
2022-11-28T17:16:37.796Z,34.15
2022-11-28T17:19:09.090Z,34.13
2022-11-28T17:21:41.929Z,34.11
2022-11-28T17:24:17.800Z,34.12
2022-11-28T17:26:47.962Z,34.09
2022-11-28T17:29:18.308Z,34.05
2022-11-28T17:31:48.788Z,34.06
2022-11-28T17:34:20.252Z,34.07
2022-11-28T17:36:50.374Z,34.03
2022-11-28T17:39:20.567Z,34.03
2022-11-28T17:41:50.828Z,34.03
2022-11-28T17:44:26.379Z,34.02
2022-11-28T17:46:57.064Z,34.02
2022-11-28T17:49:27.234Z,34.02
2022-11-28T17:51:57.771Z,33.99
2022-11-28T17:54:28.019Z,34.00
2022-11-28T17:59:22.920Z,33.98
2022-11-28T18:01:53.041Z,33.93
2022-11-28T18:04:23.347Z,33.95
2022-11-28T18:06:53.772Z,33.95
2022-11-28T18:09:23.901Z,33.96
2022-11-28T18:11:54.095Z,33.96
2022-11-28T18:14:24.002Z,33.96
2022-11-28T18:16:54.195Z,33.95
2022-11-28T18:19:24.821Z,33.96
2022-11-28T18:21:54.946Z,33.97
2022-11-28T18:24:25.181Z,33.95
2022-11-28T18:26:58.522Z,33.97
2022-11-28T18:29:28.994Z,33.94
2022-11-28T18:31:59.164Z,33.95
2022-11-28T18:34:29.302Z,33.95
2022-11-28T18:37:01.481Z,33.96
2022-11-28T18:39:32.083Z,33.97
2022-11-28T18:42:02.141Z,33.93
2022-11-28T18:44:32.297Z,33.93
2022-11-28T18:47:02.623Z,33.96
2022-11-28T18:49:33.252Z,33.94
2022-11-28T18:52:03.868Z,33.95
2022-11-28T18:54:34.018Z,33.95
2022-11-28T18:57:04.096Z,33.95
2022-11-28T18:59:34.407Z,33.96
2022-11-28T19:02:04.519Z,33.96
2022-11-28T19:04:35.103Z,33.98
2022-11-28T19:07:06.243Z,33.97
2022-11-28T19:09:36.731Z,33.99
2022-11-28T19:12:07.257Z,33.97
2022-11-28T19:14:38.537Z,33.96
2022-11-28T19:17:09.553Z,33.98
2022-11-28T19:19:45.353Z,33.99
2022-11-28T19:22:16.650Z,33.99
2022-11-28T19:24:46.739Z,33.99
2022-11-28T19:27:17.076Z,34.01
2022-11-28T19:29:47.777Z,34.00
2022-11-28T19:32:19.020Z,34.00
2022-11-28T19:34:50.760Z,34.01
2022-11-28T19:37:21.084Z,34.01
2022-11-28T19:39:51.575Z,34.00
2022-11-28T19:42:21.999Z,34.02
2022-11-28T19:44:52.021Z,34.03
2022-11-28T19:47:25.403Z,34.02
2022-11-28T19:49:56.331Z,34.04
2022-11-28T19:52:26.724Z,34.06
2022-11-28T19:54:58.721Z,34.04
2022-11-28T19:57:29.930Z,34.07
2022-11-28T20:00:00.332Z,34.06
2022-11-28T20:02:32.256Z,34.07
2022-11-28T20:05:02.397Z,34.06
2022-11-28T20:07:33.066Z,34.05
2022-11-28T20:10:03.670Z,34.06
2022-11-28T20:12:35.727Z,34.09
2022-11-28T20:15:11.472Z,34.08
2022-11-28T20:17:46.995Z,34.09
2022-11-28T20:20:17.541Z,34.10
2022-11-28T20:22:48.148Z,34.13
2022-11-28T20:25:20.980Z,34.15
2022-11-28T20:27:50.858Z,34.16
2022-11-28T20:30:21.154Z,34.16
2022-11-28T20:32:51.575Z,34.17
2022-11-28T20:35:21.700Z,34.17
2022-11-28T20:37:52.030Z,33.99
2022-11-28T20:40:22.109Z,34.22
2022-11-28T20:42:52.310Z,34.23
2022-11-28T20:45:24.576Z,34.21
2022-11-28T20:47:54.912Z,34.25
2022-11-28T20:50:24.963Z,34.26
2022-11-28T20:52:55.359Z,34.26
2022-11-28T20:55:27.241Z,34.25
2022-11-28T20:57:57.959Z,34.26
2022-11-28T21:00:28.622Z,34.27
2022-11-28T21:02:58.739Z,34.29
2022-11-28T21:05:29.037Z,34.30
2022-11-28T21:07:59.471Z,34.30
2022-11-28T21:10:32.249Z,34.33
2022-11-28T21:13:03.312Z,34.34
2022-11-28T21:15:34.778Z,34.37
2022-11-28T21:18:05.390Z,34.39
2022-11-28T21:20:35.630Z,34.38
2022-11-28T21:23:06.595Z,34.41
2022-11-28T21:25:38.737Z,34.42
2022-11-28T21:28:09.679Z,34.45
2022-11-28T21:30:48.449Z,34.46
2022-11-28T21:33:19.946Z,34.50
2022-11-28T21:35:50.757Z,34.51
2022-11-28T21:38:22.422Z,34.51
2022-11-28T21:40:57.354Z,34.53
2022-11-28T21:43:27.520Z,34.55
2022-11-28T21:45:57.760Z,34.55
2022-11-28T21:48:28.144Z,34.56
2022-11-28T21:50:59.419Z,34.56
2022-11-28T21:53:29.837Z,34.58
2022-11-28T21:56:04.249Z,34.58
2022-11-28T21:58:35.073Z,34.60
2022-11-28T22:01:13.906Z,34.63
2022-11-28T22:03:44.862Z,34.64
2022-11-28T22:06:29.321Z,34.62
2022-11-28T22:09:01.282Z,34.64
2022-11-28T22:11:34.310Z,34.66
2022-11-28T22:14:04.589Z,34.64
2022-11-28T22:16:36.129Z,34.66
2022-11-28T22:19:06.338Z,34.65
2022-11-28T22:21:56.401Z,34.66
2022-11-28T22:24:11.572Z,34.66
2022-11-28T22:26:42.494Z,34.67
2022-11-28T22:29:13.142Z,34.62
2022-11-28T22:31:44.064Z,34.64
2022-11-28T22:34:15.036Z,34.66
2022-11-28T22:36:45.451Z,34.64
2022-11-28T22:39:15.457Z,34.64
2022-11-28T22:41:46.573Z,34.67
2022-11-28T22:44:16.659Z,34.65
2022-11-28T22:46:46.869Z,34.63
2022-11-28T22:49:20.943Z,34.63
2022-11-28T22:51:51.425Z,34.65
2022-11-28T22:54:21.627Z,34.63
2022-11-28T22:56:51.836Z,34.60
2022-11-28T22:59:21.938Z,34.60
2022-11-28T23:01:52.316Z,34.59
2022-11-28T23:04:23.822Z,34.58
2022-11-28T23:06:54.165Z,34.60
2022-11-28T23:09:24.442Z,34.60
2022-11-28T23:14:28.931Z,34.57
2022-11-28T23:16:59.299Z,34.57
2022-11-28T23:19:29.573Z,34.55
2022-11-28T23:22:00.541Z,34.53
2022-11-28T23:24:31.135Z,34.52
2022-11-28T23:27:01.767Z,34.51
2022-11-28T23:29:32.295Z,34.47
2022-11-28T23:32:02.414Z,34.47
2022-11-28T23:34:32.656Z,34.46
2022-11-28T23:37:02.823Z,34.42
2022-11-28T23:39:33.036Z,34.42
2022-11-28T23:42:03.248Z,34.42
2022-11-28T23:44:34.669Z,34.40
2022-11-28T23:47:05.028Z,34.42
2022-11-28T23:49:35.261Z,34.38
2022-11-28T23:52:05.715Z,34.39
2022-11-28T23:54:36.030Z,34.40
2022-11-28T23:57:06.001Z,34.38
2022-11-28T23:59:36.148Z,34.37
